Time;durP1;ratioP1;P1;durP2;ratioP2;P2;SDS_P1;SDS_P2;PMS_P1;PMS_P2;Temp;Humidity;BMP_temperature;BMP_pressure;BME280_temperature;BME280_humidity;BME280_pressure;Samples;Min_cycle;Max_cycle;Signal;HPM_P1;HPM_P2
2021/12/19 00:09:00;;;;;;;29.07;17.77;;;9.50;57.10;;;;;;5079011;28;20863;-54
2021/12/19 00:11:26;;;;;;;31.63;18.90;;;9.50;56.90;;;;;;5089307;28;20452;-53
2021/12/19 00:13:53;;;;;;;27.60;16.90;;;9.50;57.00;;;;;;5094228;28;20866;-53
2021/12/19 00:16:19;;;;;;;32.50;18.50;;;9.50;57.00;;;;;;5089267;28;20948;-55
2021/12/19 00:18:47;;;;;;;36.23;19.27;;;9.50;56.90;;;;;;5092544;28;20507;-56
2021/12/19 00:21:17;;;;;;;29.33;18.40;;;9.50;56.90;;;;;;5088791;28;20534;-56
2021/12/19 00:23:44;;;;;;;27.90;16.77;;;9.50;56.90;;;;;;5092106;28;20440;-55
2021/12/19 00:26:10;;;;;;;27.63;16.70;;;9.60;57.00;;;;;;5090902;28;20473;-54
2021/12/19 00:28:36;;;;;;;30.53;17.17;;;9.50;57.00;;;;;;5094173;28;20440;-54
2021/12/19 00:31:03;;;;;;;33.60;18.37;;;9.60;57.50;;;;;;5086638;28;20460;-55
2021/12/19 00:33:29;;;;;;;26.20;15.50;;;9.60;56.90;;;;;;5091153;28;20822;-55
2021/12/19 00:35:55;;;;;;;28.27;16.27;;;9.60;57.00;;;;;;5092426;28;20535;-55
2021/12/19 00:38:21;;;;;;;26.83;15.70;;;9.50;56.90;;;;;;5091740;28;20887;-55
2021/12/19 00:40:47;;;;;;;26.20;15.67;;;9.50;56.90;;;;;;5092875;28;20432;-54
2021/12/19 00:43:24;;;;;;;30.30;17.73;;;9.50;57.00;;;;;;5086933;28;20441;-56
2021/12/19 00:45:52;;;;;;;28.67;16.40;;;9.50;57.00;;;;;;5093581;28;20437;-55
2021/12/19 00:48:17;;;;;;;31.20;17.40;;;9.50;57.00;;;;;;5092069;28;20905;-54
2021/12/19 00:50:43;;;;;;;30.30;17.07;;;9.40;57.10;;;;;;5090000;28;20522;-55
2021/12/19 00:53:09;;;;;;;27.93;16.53;;;9.40;57.60;;;;;;5099721;28;20205;-55
2021/12/19 00:55:36;;;;;;;28.17;15.97;;;9.40;57.60;;;;;;5090373;28;20436;-55
2021/12/19 00:58:02;;;;;;;31.70;17.17;;;9.40;57.30;;;;;;5097294;28;20191;-55
2021/12/19 01:00:32;;;;;;;30.10;16.53;;;9.40;57.70;;;;;;5097687;28;20522;-52
2021/12/19 01:02:59;;;;;;;29.80;17.83;;;9.40;57.90;;;;;;5090321;28;20542;-56
2021/12/19 01:05:30;;;;;;;27.97;17.63;;;9.40;57.80;;;;;;5092619;28;20528;-56
2021/12/19 01:07:56;;;;;;;27.30;16.57;;;9.40;57.90;;;;;;5085145;28;20441;-54
2021/12/19 01:10:22;;;;;;;28.80;18.93;;;9.40;57.80;;;;;;5089705;28;20456;-54
2021/12/19 01:12:48;;;;;;;28.17;19.03;;;9.40;57.80;;;;;;5095638;28;20458;-55
2021/12/19 01:15:16;;;;;;;36.00;19.07;;;9.40;57.70;;;;;;5097225;28;20444;-55
2021/12/19 01:17:41;;;;;;;32.00;17.10;;;9.50;57.60;;;;;;5090216;28;20187;-55
2021/12/19 01:20:15;;;;;;;30.77;17.47;;;9.40;57.70;;;;;;5089760;28;20489;-55
2021/12/19 01:22:42;;;;;;;31.30;17.97;;;9.50;57.60;;;;;;5086787;28;20353;-55
2021/12/19 01:25:07;;;;;;;32.33;18.40;;;9.50;57.50;;;;;;5094522;28;20450;-55
2021/12/19 01:27:33;;;;;;;32.17;20.23;;;9.50;57.50;;;;;;5101753;28;20437;-55
2021/12/19 01:29:58;;;;;;;29.37;18.33;;;9.50;57.50;;;;;;5089571;28;20199;-54
2021/12/19 01:32:24;;;;;;;29.73;18.87;;;9.50;57.50;;;;;;5088602;28;20217;-55
2021/12/19 01:34:50;;;;;;;27.97;16.00;;;9.50;57.60;;;;;;5090763;28;20195;-55
2021/12/19 01:37:15;;;;;;;29.20;17.40;;;9.50;57.60;;;;;;5090925;28;20194;-55
2021/12/19 01:39:41;;;;;;;32.00;17.77;;;9.50;57.80;;;;;;5093842;28;20296;-55
2021/12/19 01:42:10;;;;;;;27.33;16.57;;;9.30;57.90;;;;;;5084897;28;20895;-55
2021/12/19 01:44:36;;;;;;;31.40;18.07;;;9.30;58.40;;;;;;5090614;28;20532;-56
2021/12/19 01:47:03;;;;;;;38.63;18.03;;;9.30;58.10;;;;;;5090467;28;20875;-55
2021/12/19 01:49:29;;;;;;;31.70;17.47;;;9.30;57.90;;;;;;5090982;28;20449;-55
2021/12/19 01:51:54;;;;;;;26.93;16.17;;;9.30;58.10;;;;;;5088945;28;20440;-55
2021/12/19 01:54:20;;;;;;;32.50;18.80;;;9.20;57.80;;;;;;5092037;28;20199;-55
2021/12/19 01:56:46;;;;;;;32.30;18.57;;;9.20;58.00;;;;;;5086384;28;20191;-54
2021/12/19 01:59:12;;;;;;;28.53;17.40;;;9.20;58.20;;;;;;5090049;28;20183;-55
2021/12/19 02:01:50;;;;;;;30.30;18.97;;;9.30;58.10;;;;;;5092819;28;20496;-54
2021/12/19 02:04:17;;;;;;;31.67;19.10;;;9.30;58.10;;;;;;5091750;28;20455;-52
2021/12/19 02:06:43;;;;;;;28.83;17.13;;;9.40;58.00;;;;;;5087646;28;20433;-52
2021/12/19 02:09:10;;;;;;;31.40;18.17;;;9.40;58.00;;;;;;5088793;28;20437;-51
2021/12/19 02:11:38;;;;;;;27.00;16.90;;;9.40;57.90;;;;;;5088728;28;20190;-53
2021/12/19 02:14:05;;;;;;;27.23;16.40;;;9.40;57.90;;;;;;5091401;28;20451;-52
2021/12/19 02:16:30;;;;;;;31.37;16.80;;;9.50;58.10;;;;;;5091540;28;20509;-52
2021/12/19 02:18:57;;;;;;;27.23;15.90;;;9.50;58.00;;;;;;5088672;28;20975;-53
2021/12/19 02:21:23;;;;;;;29.30;18.13;;;9.50;58.00;;;;;;5087488;28;20473;-52
2021/12/19 02:23:49;;;;;;;33.13;18.00;;;9.50;57.70;;;;;;5092033;28;20857;-52
2021/12/19 02:26:15;;;;;;;30.90;19.10;;;9.00;58.10;;;;;;5091561;28;20852;-51
2021/12/19 02:28:41;;;;;;;33.47;18.97;;;8.90;58.80;;;;;;5095010;28;20210;-55
2021/12/19 02:31:07;;;;;;;30.83;19.33;;;9.00;59.40;;;;;;5094020;28;20825;-52
2021/12/19 02:33:37;;;;;;;30.97;19.10;;;8.90;59.40;;;;;;5096538;28;20207;-54
2021/12/19 02:36:29;;;;;;;30.93;19.73;;;9.00;59.50;;;;;;5098936;28;20659;-52
2021/12/19 02:49:48;;;;;;;33.87;19.43;;;9.10;58.40;;;;;;5093021;28;20808;-53
2021/12/19 02:52:16;;;;;;;36.10;20.63;;;9.10;59.00;;;;;;5095269;28;20449;-54
2021/12/19 02:54:43;;;;;;;29.20;16.40;;;9.10;59.10;;;;;;5097168;28;20712;-54
2021/12/19 02:57:08;;;;;;;31.93;18.23;;;9.00;59.10;;;;;;5092171;28;20707;-52
2021/12/19 02:59:34;;;;;;;34.30;20.43;;;9.00;59.00;;;;;;5093149;28;20444;-55
2021/12/19 03:02:02;;;;;;;34.83;19.00;;;9.10;59.30;;;;;;5092045;28;20762;-54
2021/12/19 03:04:28;;;;;;;39.00;20.00;;;9.10;59.40;;;;;;5092308;28;20189;-54
2021/12/19 03:06:53;;;;;;;31.17;18.70;;;9.10;59.40;;;;;;5093815;28;20432;-52
2021/12/19 03:19:58;;;;;;;32.80;18.50;;;9.00;59.50;;;;;;5092907;28;20589;-54
2021/12/19 03:22:23;;;;;;;31.20;19.20;;;9.00;59.50;;;;;;5097943;28;20866;-54
2021/12/19 03:24:49;;;;;;;34.40;18.77;;;9.00;59.40;;;;;;5091908;28;20485;-53
2021/12/19 03:27:14;;;;;;;38.53;20.07;;;9.00;59.60;;;;;;5094791;28;20191;-53
2021/12/19 03:29:40;;;;;;;31.03;18.07;;;9.00;59.80;;;;;;5093318;28;20191;-52
2021/12/19 03:32:06;;;;;;;32.33;18.57;;;9.10;59.80;;;;;;5097363;28;20196;-55
2021/12/19 03:34:34;;;;;;;34.17;18.23;;;9.10;59.80;;;;;;5089805;28;20230;-53
2021/12/19 03:36:59;;;;;;;32.63;20.10;;;9.10;59.70;;;;;;5089191;28;20199;-55
2021/12/19 03:39:32;;;;;;;38.93;21.70;;;9.10;59.70;;;;;;5092724;28;20448;-54
2021/12/19 03:41:58;;;;;;;37.83;22.00;;;9.20;59.60;;;;;;5098052;28;20247;-55
2021/12/19 03:44:24;;;;;;;38.77;21.43;;;9.20;59.40;;;;;;5095457;28;20934;-55
2021/12/19 03:46:50;;;;;;;35.77;20.47;;;9.20;59.70;;;;;;5088839;28;20191;-53
2021/12/19 03:49:18;;;;;;;34.23;20.00;;;9.10;59.60;;;;;;5094497;28;20679;-56
2021/12/19 03:51:44;;;;;;;28.50;17.93;;;9.00;59.70;;;;;;5090931;28;21049;-55
2021/12/19 03:54:09;;;;;;;35.27;19.67;;;9.10;59.50;;;;;;5092454;28;20450;-55
2021/12/19 03:56:35;;;;;;;36.07;21.20;;;9.10;59.50;;;;;;5088011;28;20194;-56
2021/12/19 03:59:01;;;;;;;36.70;19.50;;;9.10;59.50;;;;;;5096727;28;20565;-55
2021/12/19 04:01:26;;;;;;;34.30;20.00;;;9.20;59.30;;;;;;5095049;28;20259;-55
2021/12/19 04:03:52;;;;;;;33.83;19.10;;;9.20;59.30;;;;;;5090703;28;20249;-55
2021/12/19 04:06:17;;;;;;;26.90;16.60;;;9.20;59.20;;;;;;5094018;28;20548;-55
2021/12/19 04:08:43;;;;;;;27.60;14.07;;;9.20;59.10;;;;;;5091621;28;20197;-54
2021/12/19 04:11:08;;;;;;;30.10;16.00;;;9.20;59.20;;;;;;5091601;28;20235;-55
2021/12/19 04:13:34;;;;;;;24.83;13.77;;;9.10;59.20;;;;;;5090866;28;20184;-55
2021/12/19 04:16:00;;;;;;;29.60;16.23;;;9.10;59.50;;;;;;5092666;28;20282;-55
2021/12/19 04:18:26;;;;;;;27.30;16.07;;;9.20;59.50;;;;;;5089964;28;20195;-55
2021/12/19 04:20:51;;;;;;;25.60;14.60;;;9.10;59.50;;;;;;5098677;28;20561;-55
2021/12/19 04:23:17;;;;;;;26.90;15.40;;;9.00;59.40;;;;;;5090961;28;20286;-54
2021/12/19 04:25:43;;;;;;;31.20;15.97;;;9.10;59.50;;;;;;5089901;28;20210;-53
2021/12/19 04:28:09;;;;;;;27.57;15.00;;;9.10;59.30;;;;;;5094525;28;20891;-55
2021/12/19 04:30:35;;;;;;;30.37;16.97;;;9.10;59.50;;;;;;5082087;28;20203;-55
2021/12/19 04:33:08;;;;;;;27.93;16.17;;;9.20;59.40;;;;;;5090630;28;20196;-56
2021/12/19 04:35:36;;;;;;;31.97;16.40;;;9.20;59.20;;;;;;5084249;28;20198;-56
2021/12/19 04:40:45;;;;;;;35.60;19.50;;;9.20;59.20;;;;;;5089743;28;21295;-56
2021/12/19 04:56:38;;;;;;;30.67;16.93;;;8.90;59.80;;;;;;5090487;28;20475;-55
2021/12/19 04:59:34;;;;;;;37.03;20.20;;;9.00;59.90;;;;;;5093541;28;20447;-53
2021/12/19 05:02:08;;;;;;;34.20;17.90;;;9.00;59.80;;;;;;5090431;28;20763;-55
2021/12/19 05:05:16;;;;;;;41.07;19.63;;;9.10;59.80;;;;;;5088906;28;20445;-55
2021/12/19 05:15:38;;;;;;;41.17;18.57;;;9.00;60.20;;;;;;5088258;28;21332;-55
2021/12/19 05:18:07;;;;;;;35.43;20.30;;;9.10;60.10;;;;;;5090536;28;20456;-54
2021/12/19 05:20:35;;;;;;;51.50;22.10;;;9.10;60.20;;;;;;5089930;28;20469;-56
2021/12/19 05:23:09;;;;;;;40.90;18.90;;;9.10;60.40;;;;;;5091854;28;21033;-54
2021/12/19 05:25:34;;;;;;;41.70;20.90;;;9.20;60.20;;;;;;5090200;28;20450;-54
2021/12/19 05:28:00;;;;;;;42.50;19.07;;;9.20;60.00;;;;;;5090515;28;20552;-55
2021/12/19 05:30:27;;;;;;;40.53;18.90;;;9.20;60.10;;;;;;5088919;28;20910;-55
2021/12/19 05:32:54;;;;;;;36.37;18.37;;;9.30;60.10;;;;;;5090434;28;20452;-55
2021/12/19 05:44:15;;;;;;;42.53;20.47;;;9.30;59.80;;;;;;5054402;28;20437;-54
2021/12/19 05:46:41;;;;;;;41.13;19.63;;;9.40;59.90;;;;;;5088692;28;20950;-54
2021/12/19 05:49:08;;;;;;;37.03;19.43;;;9.40;59.80;;;;;;5091476;28;20936;-52
2021/12/19 05:51:35;;;;;;;45.93;22.07;;;9.40;59.70;;;;;;5089198;28;20977;-54
2021/12/19 05:54:01;;;;;;;39.47;20.00;;;9.40;59.40;;;;;;5092605;28;20429;-54
2021/12/19 05:56:26;;;;;;;39.43;19.33;;;9.30;59.40;;;;;;5086446;28;20838;-52
2021/12/19 05:58:52;;;;;;;39.07;18.63;;;9.30;59.30;;;;;;5088925;28;20563;-54
2021/12/19 06:01:18;;;;;;;41.13;22.03;;;9.40;59.40;;;;;;5092732;28;20233;-54
2021/12/19 06:03:43;;;;;;;35.23;18.23;;;9.40;59.50;;;;;;5095333;28;20225;-55
2021/12/19 06:06:09;;;;;;;35.83;18.03;;;9.30;59.50;;;;;;5092711;28;20551;-55
2021/12/19 06:08:35;;;;;;;25.30;13.60;;;9.20;59.80;;;;;;5092460;28;20187;-55
2021/12/19 06:11:01;;;;;;;31.10;16.67;;;9.00;60.70;;;;;;5098436;28;20674;-53
2021/12/19 06:13:26;;;;;;;32.80;13.67;;;9.10;60.90;;;;;;5099188;28;20222;-55
2021/12/19 06:15:54;;;;;;;19.93;11.60;;;9.10;61.80;;;;;;5092962;28;20213;-55
2021/12/19 06:18:20;;;;;;;21.13;11.17;;;9.20;61.70;;;;;;5090566;28;20203;-53
2021/12/19 06:20:46;;;;;;;15.80;9.27;;;9.40;62.00;;;;;;5094268;28;20441;-54
2021/12/19 06:23:12;;;;;;;22.87;9.33;;;9.40;61.10;;;;;;5093684;28;20265;-55
2021/12/19 06:25:45;;;;;;;14.63;7.37;;;9.60;61.20;;;;;;5092703;28;20790;-56
2021/12/19 06:28:18;;;;;;;12.47;6.60;;;9.70;60.40;;;;;;5093231;28;20195;-55
2021/12/19 06:30:44;;;;;;;11.07;6.20;;;9.80;59.70;;;;;;5091402;28;20441;-54
2021/12/19 06:33:10;;;;;;;12.20;6.67;;;9.80;58.90;;;;;;5092582;28;20444;-56
2021/12/19 06:35:36;;;;;;;10.10;6.00;;;9.90;58.90;;;;;;5090582;28;20502;-55
2021/12/19 06:38:02;;;;;;;11.47;6.60;;;10.00;58.10;;;;;;5092050;28;20193;-57
2021/12/19 06:40:28;;;;;;;12.47;7.17;;;10.20;57.60;;;;;;5090883;28;20912;-56
2021/12/19 06:42:54;;;;;;;12.03;7.50;;;10.10;56.90;;;;;;5092889;28;20576;-56
2021/12/19 06:45:21;;;;;;;13.87;8.43;;;10.20;57.00;;;;;;5091193;28;20191;-55
2021/12/19 06:47:48;;;;;;;12.07;7.60;;;10.20;57.00;;;;;;5092942;28;20871;-55
2021/12/19 06:50:15;;;;;;;10.27;7.50;;;10.20;56.80;;;;;;5091847;28;20436;-55
2021/12/19 06:52:41;;;;;;;11.33;7.63;;;9.90;57.70;;;;;;5092724;28;20481;-57
2021/12/19 06:55:09;;;;;;;12.00;6.77;;;9.90;57.80;;;;;;5091143;28;20425;-55
2021/12/19 06:57:35;;;;;;;11.67;8.33;;;10.00;57.00;;;;;;5090906;28;20493;-55
2021/12/19 07:00:03;;;;;;;12.37;8.50;;;10.10;57.00;;;;;;5089810;28;20429;-56
2021/12/19 07:02:29;;;;;;;10.57;7.47;;;10.10;57.00;;;;;;5088760;28;20269;-55
2021/12/19 07:04:54;;;;;;;12.87;7.70;;;10.10;56.70;;;;;;5089308;28;20480;-56
2021/12/19 07:07:21;;;;;;;10.67;6.13;;;10.30;56.70;;;;;;5089416;28;20400;-52
2021/12/19 07:09:47;;;;;;;14.17;8.10;;;10.40;56.20;;;;;;5089126;28;20191;-55
2021/12/19 07:12:12;;;;;;;12.03;7.50;;;10.60;56.10;;;;;;5090834;28;20532;-54
2021/12/19 07:14:38;;;;;;;12.93;7.97;;;10.60;55.90;;;;;;5091105;28;20195;-53
2021/12/19 07:17:04;;;;;;;9.47;6.60;;;10.70;55.50;;;;;;5091749;28;20231;-55
2021/12/19 07:19:29;;;;;;;5.83;4.20;;;10.70;55.30;;;;;;5092414;28;20309;-55
2021/12/19 07:21:55;;;;;;;7.50;5.23;;;10.70;55.30;;;;;;5088795;28;20858;-56
2021/12/19 07:24:20;;;;;;;7.20;4.50;;;10.70;54.70;;;;;;5086131;28;20265;-56
2021/12/19 07:26:46;;;;;;;7.40;5.27;;;10.60;54.50;;;;;;5094805;28;20191;-55
2021/12/19 07:29:12;;;;;;;12.70;7.00;;;10.40;54.60;;;;;;5086088;28;20195;-56
2021/12/19 07:31:38;;;;;;;17.97;12.43;;;10.40;55.00;;;;;;5092533;28;20209;-55
2021/12/19 07:34:07;;;;;;;14.97;9.80;;;10.20;55.10;;;;;;5091761;28;20229;-56
2021/12/19 07:36:40;;;;;;;10.40;7.40;;;10.20;55.30;;;;;;5092891;28;20482;-55
2021/12/19 07:39:11;;;;;;;9.93;6.57;;;10.10;55.50;;;;;;5093395;28;20559;-55
2021/12/19 07:41:37;;;;;;;10.70;6.27;;;10.00;55.80;;;;;;5092231;28;20549;-56
2021/12/19 07:44:03;;;;;;;10.60;7.50;;;10.00;56.10;;;;;;5093032;28;20908;-56
2021/12/19 07:46:28;;;;;;;10.43;7.67;;;9.90;56.80;;;;;;5092759;28;20559;-56
2021/12/19 07:48:54;;;;;;;9.17;6.20;;;9.90;57.00;;;;;;5093277;28;20493;-56
2021/12/19 07:51:19;;;;;;;9.80;6.83;;;9.90;57.10;;;;;;5092455;28;20199;-56
2021/12/19 07:53:45;;;;;;;8.47;6.30;;;9.70;57.30;;;;;;5093201;28;20195;-56
2021/12/19 07:56:11;;;;;;;9.23;5.53;;;9.70;57.70;;;;;;5092722;28;20561;-56
2021/12/19 07:58:36;;;;;;;8.60;5.83;;;9.60;57.80;;;;;;5092981;28;20681;-56
2021/12/19 08:01:03;;;;;;;9.40;6.10;;;9.60;58.00;;;;;;5090153;28;20199;-55
2021/12/19 08:03:28;;;;;;;7.73;5.10;;;9.50;58.10;;;;;;5092792;28;20195;-56
2021/12/19 08:05:54;;;;;;;7.80;4.70;;;9.60;58.20;;;;;;5092282;28;20436;-56
2021/12/19 08:08:25;;;;;;;7.43;5.57;;;9.50;58.00;;;;;;5092513;28;20223;-56
2021/12/19 08:13:36;;;;;;;8.47;5.40;;;9.60;57.90;;;;;;5093098;28;20440;-55
2021/12/19 08:16:01;;;;;;;8.43;5.40;;;9.60;58.00;;;;;;5092120;28;20671;-56
2021/12/19 08:18:27;;;;;;;10.90;6.40;;;9.60;58.20;;;;;;5092107;28;20413;-54
2021/12/19 08:20:53;;;;;;;11.70;7.90;;;9.60;58.20;;;;;;5087573;28;20188;-56
2021/12/19 08:23:18;;;;;;;12.50;6.17;;;9.50;58.20;;;;;;5091099;28;20227;-56
2021/12/19 08:25:44;;;;;;;14.00;6.20;;;9.50;58.30;;;;;;5091889;28;20194;-55
2021/12/19 08:28:09;;;;;;;11.17;7.57;;;9.30;58.80;;;;;;5090658;28;20611;-56
2021/12/19 08:30:35;;;;;;;9.63;6.80;;;9.20;58.80;;;;;;5091901;28;20195;-56
2021/12/19 08:33:01;;;;;;;11.07;6.37;;;9.20;58.90;;;;;;5091847;28;20191;-56
2021/12/19 08:35:26;;;;;;;10.43;6.83;;;9.30;59.00;;;;;;5091599;28;20191;-55
2021/12/19 08:37:52;;;;;;;10.23;7.00;;;9.20;58.90;;;;;;5092068;28;20232;-55
2021/12/19 08:40:18;;;;;;;10.57;6.87;;;9.00;59.30;;;;;;5090621;28;20210;-56
2021/12/19 08:42:44;;;;;;;10.13;7.27;;;9.10;59.50;;;;;;5091700;28;20583;-56
2021/12/19 08:45:11;;;;;;;11.20;6.40;;;8.90;59.70;;;;;;5091484;28;20455;-55
2021/12/19 08:47:36;;;;;;;8.47;4.93;;;8.80;60.00;;;;;;5092180;28;20979;-56
2021/12/19 08:50:04;;;;;;;10.00;6.17;;;8.80;60.20;;;;;;5091609;28;20501;-54
2021/12/19 08:52:30;;;;;;;8.87;5.60;;;8.50;60.90;;;;;;5091142;28;20195;-56
2021/12/19 08:54:58;;;;;;;8.53;4.80;;;8.60;61.10;;;;;;5090050;28;20472;-55
2021/12/19 08:57:23;;;;;;;6.33;4.30;;;8.80;60.90;;;;;;5091846;28;20195;-56
2021/12/19 08:59:49;;;;;;;7.40;4.60;;;8.70;60.10;;;;;;5091184;28;20417;-55
2021/12/19 09:02:15;;;;;;;8.37;5.47;;;8.70;60.50;;;;;;5091071;28;20685;-55
2021/12/19 09:04:40;;;;;;;9.30;5.30;;;8.50;60.50;;;;;;5091314;28;20195;-55
2021/12/19 09:07:06;;;;;;;6.20;4.63;;;8.60;60.60;;;;;;5091532;28;20626;-56
2021/12/19 09:09:32;;;;;;;5.83;4.33;;;8.60;60.40;;;;;;5091320;28;20194;-55
2021/12/19 09:11:58;;;;;;;7.17;4.70;;;8.50;60.20;;;;;;5090985;28;20256;-56
2021/12/19 09:14:23;;;;;;;7.57;4.50;;;8.50;60.50;;;;;;5091816;28;20791;-55
2021/12/19 09:16:49;;;;;;;7.30;4.47;;;8.40;60.10;;;;;;5090636;28;20195;-56
2021/12/19 09:19:15;;;;;;;7.90;4.90;;;8.40;60.70;;;;;;5091313;28;20231;-56
2021/12/19 09:21:41;;;;;;;8.60;5.53;;;8.50;60.50;;;;;;5082757;28;20247;-56
2021/12/19 09:24:07;;;;;;;8.37;5.10;;;8.60;60.40;;;;;;5091715;28;20468;-56
2021/12/19 09:26:35;;;;;;;6.50;4.47;;;8.60;60.10;;;;;;5090807;28;20498;-56
2021/12/19 09:29:01;;;;;;;8.43;5.20;;;8.70;59.90;;;;;;5091307;28;20468;-55
2021/12/19 09:31:29;;;;;;;7.13;4.97;;;8.60;59.80;;;;;;5090505;28;20457;-55
2021/12/19 09:33:54;;;;;;;11.40;6.23;;;8.70;59.70;;;;;;5091282;28;20199;-55
2021/12/19 09:36:20;;;;;;;9.33;6.10;;;8.80;59.70;;;;;;5089811;28;21323;-56
2021/12/19 09:38:48;;;;;;;10.47;6.77;;;8.80;59.60;;;;;;5091288;28;20293;-55
2021/12/19 09:41:17;;;;;;;11.00;6.83;;;8.90;59.70;;;;;;5090316;28;20274;-56
2021/12/19 09:43:43;;;;;;;12.80;6.93;;;8.90;59.50;;;;;;5091351;28;20502;-56
2021/12/19 09:46:11;;;;;;;9.00;6.63;;;8.90;59.50;;;;;;5090358;28;20425;-56
2021/12/19 09:48:39;;;;;;;10.60;6.40;;;9.00;59.50;;;;;;5089391;28;20215;-56
2021/12/19 09:51:05;;;;;;;10.93;7.00;;;9.00;59.50;;;;;;5090102;28;20433;-55
2021/12/19 09:53:31;;;;;;;7.40;5.60;;;9.00;59.70;;;;;;5091253;28;20425;-55
2021/12/19 09:55:57;;;;;;;6.33;4.60;;;9.00;59.70;;;;;;5090506;28;20912;-57
2021/12/19 09:58:22;;;;;;;9.37;5.47;;;9.10;59.60;;;;;;5090901;28;20190;-55
2021/12/19 10:00:53;;;;;;;8.53;5.70;;;9.10;59.30;;;;;;5090147;28;20194;-56
2021/12/19 10:03:20;;;;;;;8.80;5.60;;;9.00;59.40;;;;;;5090778;28;20242;-56
2021/12/19 10:05:46;;;;;;;7.90;5.50;;;8.90;59.50;;;;;;5090233;28;20429;-55
2021/12/19 10:08:23;;;;;;;10.70;6.33;;;9.00;59.70;;;;;;5087985;28;20437;-55
2021/12/19 10:10:58;;;;;;;9.83;5.83;;;9.10;59.90;;;;;;5079102;28;20195;-55
2021/12/19 10:13:36;;;;;;;11.53;7.00;;;9.10;59.70;;;;;;5089482;28;20459;-56
2021/12/19 10:16:30;;;;;;;7.50;5.40;;;9.20;59.80;;;;;;5088989;28;20421;-56
2021/12/19 10:18:59;;;;;;;7.57;4.63;;;9.20;59.90;;;;;;5090956;28;20488;-56
2021/12/19 10:21:27;;;;;;;9.73;5.10;;;9.30;59.90;;;;;;5089647;28;20980;-56
2021/12/19 10:23:59;;;;;;;9.90;7.43;;;9.40;59.80;;;;;;5090682;28;20436;-55
2021/12/19 10:26:38;;;;;;;5.43;3.97;;;9.10;59.50;;;;;;5090195;28;20437;-55
2021/12/19 10:29:04;;;;;;;5.60;3.93;;;9.10;60.00;;;;;;5090667;28;20413;-56
2021/12/19 10:31:29;;;;;;;5.53;3.80;;;9.10;60.10;;;;;;5089911;28;20434;-56
2021/12/19 10:33:55;;;;;;;5.40;4.20;;;9.10;59.90;;;;;;5090567;28;20266;-55
2021/12/19 10:36:21;;;;;;;4.97;3.80;;;9.10;59.80;;;;;;5090064;28;20195;-55
2021/12/19 10:38:52;;;;;;;4.23;3.53;;;9.00;59.80;;;;;;5090580;28;20424;-56
2021/12/19 10:41:21;;;;;;;3.60;2.73;;;9.10;59.80;;;;;;5088067;28;20215;-56
2021/12/19 10:44:03;;;;;;;5.70;3.93;;;9.00;59.70;;;;;;5090126;28;20433;-56
2021/12/19 10:46:37;;;;;;;3.83;3.37;;;9.20;59.70;;;;;;5090139;28;20482;-55
2021/12/19 10:49:24;;;;;;;4.50;3.40;;;9.30;59.40;;;;;;5094351;28;20431;-56
2021/12/19 10:51:50;;;;;;;4.90;3.30;;;9.30;59.40;;;;;;5093317;28;20481;-56
2021/12/19 10:54:16;;;;;;;3.63;3.23;;;9.30;59.10;;;;;;5094262;28;20494;-55
2021/12/19 10:56:42;;;;;;;3.30;2.93;;;9.30;59.10;;;;;;5093660;28;20417;-56
2021/12/19 10:59:16;;;;;;;3.10;2.80;;;9.20;59.20;;;;;;5094140;28;20268;-56
2021/12/19 11:01:52;;;;;;;3.50;3.17;;;9.10;59.50;;;;;;5093006;28;20523;-56
2021/12/19 11:04:27;;;;;;;4.87;3.70;;;9.20;59.30;;;;;;5094046;28;20430;-56
2021/12/19 11:06:56;;;;;;;4.43;3.30;;;9.20;59.40;;;;;;5093388;28;20429;-56
2021/12/19 11:09:28;;;;;;;4.40;3.50;;;9.20;59.30;;;;;;5082265;28;20486;-55
2021/12/19 11:12:00;;;;;;;3.97;3.57;;;9.10;59.20;;;;;;5092954;28;20477;-55
2021/12/19 11:14:37;;;;;;;6.43;3.30;;;9.10;59.40;;;;;;5093551;28;20437;-55
2021/12/19 11:17:07;;;;;;;4.00;3.10;;;9.30;59.20;;;;;;5094011;28;20524;-56
2021/12/19 11:19:34;;;;;;;4.00;3.40;;;9.30;58.80;;;;;;5093645;28;20538;-56
2021/12/19 11:22:00;;;;;;;3.30;3.00;;;9.30;58.70;;;;;;5093388;28;20457;-56
2021/12/19 11:24:26;;;;;;;3.90;3.10;;;9.30;58.80;;;;;;5093540;28;20578;-55
2021/12/19 11:26:59;;;;;;;4.50;2.63;;;9.40;59.20;;;;;;5093142;28;20785;-56
2021/12/19 11:29:25;;;;;;;3.13;2.83;;;9.40;59.00;;;;;;5093545;28;20478;-56
2021/12/19 11:31:57;;;;;;;4.93;3.00;;;9.40;58.70;;;;;;5092508;28;20453;-56
2021/12/19 11:34:39;;;;;;;3.80;2.67;;;9.30;58.70;;;;;;5091787;28;20828;-55
2021/12/19 11:37:15;;;;;;;4.20;2.70;;;9.10;59.20;;;;;;5093403;28;20444;-56
2021/12/19 11:39:46;;;;;;;3.50;2.50;;;8.90;59.60;;;;;;5092975;28;20796;-56
2021/12/19 11:42:15;;;;;;;5.70;3.17;;;8.80;59.70;;;;;;5093070;28;20986;-55
2021/12/19 11:47:47;;;;;;;3.90;2.97;;;8.90;59.90;;;;;;5093130;28;20796;-55
2021/12/19 11:50:27;;;;;;;3.13;2.73;;;9.00;59.70;;;;;;5092679;28;20437;-56
2021/12/19 11:53:15;;;;;;;3.10;2.70;;;9.20;59.40;;;;;;5093004;28;20430;-56
2021/12/19 11:55:50;;;;;;;3.30;3.00;;;9.20;59.20;;;;;;5092647;28;20442;-56
2021/12/19 11:58:24;;;;;;;3.90;3.23;;;9.20;59.30;;;;;;5092230;28;20520;-56
2021/12/19 12:00:52;;;;;;;4.57;3.40;;;9.10;58.90;;;;;;5090329;28;20797;-55
2021/12/19 12:03:21;;;;;;;3.43;2.97;;;9.00;59.60;;;;;;5092624;28;20492;-56
2021/12/19 12:05:49;;;;;;;4.70;4.10;;;9.00;59.70;;;;;;5092377;28;20433;-55
2021/12/19 12:08:19;;;;;;;5.60;4.27;;;9.00;59.90;;;;;;5092858;28;20795;-55
2021/12/19 12:10:49;;;;;;;4.80;4.13;;;9.10;59.60;;;;;;5091946;28;20456;-56
2021/12/19 12:13:32;;;;;;;7.63;6.00;;;9.10;59.30;;;;;;5092557;28;20520;-56
2021/12/19 12:16:32;;;;;;;4.80;3.33;;;9.30;59.20;;;;;;5092006;28;20938;-55
2021/12/19 12:19:05;;;;;;;5.13;3.33;;;9.20;59.20;;;;;;5092435;28;20552;-55
2021/12/19 12:24:15;;;;;;;4.40;3.40;;;9.20;59.10;;;;;;5092552;28;20421;-56
2021/12/19 12:27:03;;;;;;;3.40;3.00;;;9.30;59.00;;;;;;5091820;28;20460;-55
2021/12/19 12:29:29;;;;;;;4.30;3.90;;;9.40;59.00;;;;;;5092377;28;20437;-56
2021/12/19 12:31:54;;;;;;;3.60;3.30;;;9.10;59.10;;;;;;5091560;28;20422;-56
2021/12/19 12:34:21;;;;;;;4.13;3.43;;;9.10;59.60;;;;;;5092285;28;20790;-56
2021/12/19 12:36:47;;;;;;;3.43;2.83;;;9.20;59.50;;;;;;5091742;28;20194;-56
2021/12/19 12:39:22;;;;;;;3.53;3.23;;;9.20;59.00;;;;;;5092291;28;20437;-56
2021/12/19 12:42:03;;;;;;;3.30;3.00;;;9.30;58.90;;;;;;5090988;28;20670;-56
2021/12/19 12:44:28;;;;;;;3.93;3.40;;;9.40;58.70;;;;;;5092250;28;20775;-56
2021/12/19 12:46:54;;;;;;;4.60;3.70;;;9.50;58.50;;;;;;5090275;28;20440;-56
2021/12/19 12:49:25;;;;;;;3.30;3.00;;;9.60;58.30;;;;;;5091930;28;20191;-56
2021/12/19 12:51:57;;;;;;;3.37;3.07;;;9.60;58.30;;;;;;5091502;28;20221;-56
2021/12/19 12:54:29;;;;;;;4.40;3.67;;;9.70;58.10;;;;;;5090442;28;20441;-56
2021/12/19 12:56:58;;;;;;;5.50;3.93;;;9.70;57.80;;;;;;5091436;28;20455;-55
2021/12/19 12:59:28;;;;;;;4.40;3.80;;;9.60;57.90;;;;;;5091869;28;20429;-56
2021/12/19 13:04:34;;;;;;;5.03;3.60;;;9.20;58.50;;;;;;5091583;28;20494;-55
2021/12/19 13:07:09;;;;;;;4.73;4.10;;;9.10;58.90;;;;;;5090698;28;20424;-54
2021/12/19 13:09:37;;;;;;;4.03;3.63;;;9.30;58.90;;;;;;5082824;28;20483;-55
2021/12/19 13:12:15;;;;;;;4.53;3.87;;;9.20;58.50;;;;;;5090960;28;20425;-55
2021/12/19 13:14:48;;;;;;;4.47;3.80;;;9.30;58.50;;;;;;5091058;28;20429;-55
2021/12/19 13:17:17;;;;;;;4.77;4.20;;;9.20;58.30;;;;;;5091493;28;20421;-55
2021/12/19 13:19:42;;;;;;;4.17;3.87;;;9.00;58.60;;;;;;5090604;28;20464;-56
2021/12/19 13:22:12;;;;;;;5.00;4.50;;;9.00;59.10;;;;;;5089539;28;20485;-53
2021/12/19 13:24:38;;;;;;;4.57;4.17;;;9.00;59.10;;;;;;5090860;28;20234;-55
2021/12/19 13:27:13;;;;;;;5.00;4.50;;;9.00;59.20;;;;;;5091451;28;20497;-55
2021/12/19 13:29:41;;;;;;;4.77;4.27;;;9.00;59.10;;;;;;5090797;28;20428;-55
2021/12/19 13:32:20;;;;;;;5.80;4.50;;;9.20;58.80;;;;;;5091241;28;20470;-55
2021/12/19 13:34:47;;;;;;;5.77;4.37;;;9.20;58.80;;;;;;5090625;28;20944;-52
2021/12/19 13:37:13;;;;;;;5.70;4.40;;;9.30;58.70;;;;;;5091261;28;20428;-55
2021/12/19 13:39:41;;;;;;;6.53;4.10;;;9.10;58.70;;;;;;5090563;28;20421;-52
2021/12/19 13:42:12;;;;;;;4.60;4.20;;;8.90;59.20;;;;;;5090938;28;20222;-56
2021/12/19 13:44:38;;;;;;;7.20;4.53;;;9.00;59.20;;;;;;5090437;28;20437;-56
2021/12/19 13:47:22;;;;;;;6.00;5.37;;;8.80;59.20;;;;;;5089224;28;20921;-55
2021/12/19 13:49:48;;;;;;;6.70;5.93;;;8.70;59.40;;;;;;5090690;28;20520;-55
2021/12/19 13:52:13;;;;;;;5.27;4.77;;;8.70;59.90;;;;;;5090601;28;20917;-55
2021/12/19 13:54:40;;;;;;;6.90;5.83;;;8.80;59.80;;;;;;5090722;28;20507;-55
2021/12/19 13:57:20;;;;;;;6.27;5.67;;;8.90;59.60;;;;;;5090683;28;20201;-56
2021/12/19 13:59:45;;;;;;;6.00;5.23;;;9.00;59.30;;;;;;5090517;28;20898;-55
2021/12/19 14:02:12;;;;;;;6.30;5.70;;;9.10;59.40;;;;;;5090669;28;20583;-55
2021/12/19 14:04:37;;;;;;;7.00;5.77;;;9.10;59.10;;;;;;5090601;28;20556;-55